Time;durP1;ratioP1;P1;durP2;ratioP2;P2;SDS_P1;SDS_P2;PMS_P1;PMS_P2;Temp;Humidity;BMP_temperature;BMP_pressure;BME280_temperature;BME280_humidity;BME280_pressure;Samples;Min_cycle;Max_cycle;Signal;HPM_P1;HPM_P2
2023/07/11 00:00:49;;;;;;;1.50;1.40;;;;;;;12.24;100.00;98333.81;5137451;27;20427;-53
2023/07/11 00:03:16;;;;;;;2.35;1.60;;;;;;;12.10;100.00;98357.81;5137343;28;20051;-58
2023/07/11 00:05:42;;;;;;;1.05;1.02;;;;;;;12.11;100.00;98390.38;5137162;28;20103;-57
2023/07/11 00:08:08;;;;;;;2.25;1.55;;;;;;;12.11;100.00;98420.59;5137315;28;20051;-55
2023/07/11 00:10:34;;;;;;;1.60;1.50;;;;;;;12.13;100.00;98448.47;5137427;27;20054;-59
2023/07/11 00:13:00;;;;;;;1.58;1.48;;;;;;;12.11;100.00;98464.56;5137137;28;20070;-58
2023/07/11 00:15:26;;;;;;;1.38;1.27;;;;;;;12.05;100.00;98482.59;5137295;28;20326;-51
2023/07/11 00:17:53;;;;;;;1.60;1.50;;;;;;;11.86;100.00;98510.41;5136939;28;20390;-55
2023/07/11 00:20:20;;;;;;;3.75;1.48;;;;;;;11.92;100.00;98548.09;5137335;28;20141;-59
2023/07/11 00:22:46;;;;;;;1.75;1.65;;;;;;;11.93;100.00;98526.94;5136920;28;20051;-57
2023/07/11 00:25:13;;;;;;;3.75;1.42;;;;;;;11.92;100.00;98522.59;5137274;27;20421;-53
2023/07/11 00:27:39;;;;;;;2.03;1.80;;;;;;;11.92;100.00;98539.09;5137110;28;20191;-58
2023/07/11 00:30:08;;;;;;;3.13;1.77;;;;;;;11.89;100.00;98535.16;5136962;28;20092;-52
2023/07/11 00:32:34;;;;;;;6.05;1.45;;;;;;;11.77;100.00;98552.75;5137032;28;20047;-56
2023/07/11 00:35:00;;;;;;;1.45;1.35;;;;;;;11.83;100.00;98583.38;5136907;28;20151;-53
2023/07/11 00:37:27;;;;;;;5.13;1.45;;;;;;;11.86;100.00;98587.31;5137002;28;20083;-52
2023/07/11 00:39:53;;;;;;;3.17;1.83;;;;;;;11.81;100.00;98558.25;5136803;28;20055;-52
2023/07/11 00:42:19;;;;;;;1.98;1.60;;;;;;;11.76;100.00;98586.88;5136686;28;20131;-52
2023/07/11 00:44:53;;;;;;;2.17;1.60;;;;;;;11.70;100.00;98587.66;5136573;28;20421;-55
2023/07/11 00:47:21;;;;;;;1.77;1.33;;;;;;;11.69;100.00;98594.28;5137072;27;20138;-55
2023/07/11 00:49:49;;;;;;;5.70;1.70;;;;;;;11.64;100.00;98608.41;5140089;28;20418;-55
2023/07/11 00:52:17;;;;;;;4.53;1.38;;;;;;;11.57;100.00;98628.38;5140504;27;20138;-52
2023/07/11 00:54:47;;;;;;;3.85;1.60;;;;;;;11.45;100.00;98670.66;5140028;28;20062;-56
2023/07/11 00:57:16;;;;;;;2.20;1.50;;;;;;;11.49;100.00;98722.81;5140179;28;20225;-54
2023/07/11 00:59:42;;;;;;;2.25;1.50;;;;;;;11.45;100.00;98728.28;5140062;27;20047;-55
2023/07/11 01:02:13;;;;;;;3.03;1.90;;;;;;;11.47;100.00;98741.66;5140100;28;20046;-57
2023/07/11 01:04:39;;;;;;;1.58;1.48;;;;;;;11.42;100.00;98748.25;5140107;28;20133;-53
2023/07/11 01:07:09;;;;;;;2.70;1.52;;;;;;;11.35;100.00;98783.09;5139874;28;20047;-55
2023/07/11 01:09:35;;;;;;;1.63;1.50;;;;;;;11.31;100.00;98819.53;5140204;27;20078;-51
2023/07/11 01:12:06;;;;;;;1.92;1.75;;;;;;;11.22;100.00;98843.75;5139702;28;20169;-53
2023/07/11 01:14:33;;;;;;;3.00;1.70;;;;;;;11.18;100.00;98891.53;5140231;28;20047;-58
2023/07/11 01:16:59;;;;;;;1.95;1.77;;;;;;;11.11;100.00;98927.91;5139616;28;20055;-52
2023/07/11 01:19:25;;;;;;;1.92;1.77;;;;;;;11.08;100.00;98964.31;5139878;28;20047;-58
2023/07/11 01:21:52;;;;;;;2.40;1.95;;;;;;;10.96;100.00;99002.94;5139905;28;20057;-56
2023/07/11 01:24:18;;;;;;;1.80;1.70;;;;;;;10.90;100.00;99040.09;5139783;28;20154;-53
2023/07/11 01:26:44;;;;;;;1.52;1.42;;;;;;;10.77;100.00;99097.88;5139877;28;20071;-59
2023/07/11 01:29:11;;;;;;;4.78;2.10;;;;;;;10.74;100.00;99147.19;5139645;28;20111;-55
2023/07/11 01:31:37;;;;;;;2.05;1.77;;;;;;;10.81;100.00;99175.50;5139742;27;20047;-57
2023/07/11 01:34:04;;;;;;;2.38;1.80;;;;;;;10.77;100.00;99171.91;5139455;27;20373;-56
2023/07/11 01:36:30;;;;;;;6.22;1.88;;;;;;;10.74;100.00;99161.69;5139753;28;20047;-55
2023/07/11 01:38:57;;;;;;;5.05;1.77;;;;;;;10.70;100.00;99193.75;5139456;28;20119;-58
2023/07/11 01:41:23;;;;;;;4.03;2.10;;;;;;;10.68;100.00;99211.69;5139709;28;20107;-52
2023/07/11 01:43:49;;;;;;;2.80;1.70;;;;;;;10.66;100.00;99224.97;5139309;28;20076;-56
2023/07/11 01:46:15;;;;;;;2.35;2.00;;;;;;;10.58;100.00;99241.28;5139709;28;20051;-59
2023/07/11 01:48:40;;;;;;;5.28;2.00;;;;;;;10.64;100.00;99246.50;5139231;28;20047;-57
2023/07/11 01:51:06;;;;;;;2.08;1.67;;;;;;;10.57;100.00;99260.84;5139345;28;20146;-55
2023/07/11 01:53:32;;;;;;;2.97;2.10;;;;;;;10.55;100.00;99266.69;5139374;28;20058;-53
2023/07/11 01:56:01;;;;;;;2.90;1.80;;;;;;;10.61;100.00;99250.75;5139250;28;20096;-54
2023/07/11 01:58:28;;;;;;;5.30;2.00;;;;;;;10.59;100.00;99264.81;5139395;27;20120;-55
2023/07/11 02:00:55;;;;;;;2.20;2.00;;;;;;;10.64;100.00;99257.47;5138101;27;20157;-57
2023/07/11 02:03:21;;;;;;;1.98;1.67;;;;;;;10.67;100.00;99238.34;5139365;27;20366;-53
2023/07/11 02:05:47;;;;;;;5.68;1.60;;;;;;;10.71;100.00;99236.44;5138867;28;20138;-57
2023/07/11 02:08:13;;;;;;;2.47;1.20;;;;;;;10.74;100.00;99208.28;5139284;28;20046;-58
2023/07/11 02:10:39;;;;;;;2.78;2.20;;;;;;;10.72;100.00;99193.34;5138792;27;20054;-58
2023/07/11 02:13:05;;;;;;;2.45;1.90;;;;;;;10.66;100.00;99187.38;5139283;28;20058;-55
2023/07/11 02:15:32;;;;;;;4.03;2.10;;;;;;;10.73;100.00;99223.16;5138684;28;20050;-59
2023/07/11 02:17:58;;;;;;;1.50;1.40;;;;;;;10.76;100.00;99207.91;5138975;28;20062;-58
2023/07/11 02:20:24;;;;;;;1.88;1.77;;;;;;;10.87;100.00;99214.41;5138911;28;20115;-57
2023/07/11 02:22:50;;;;;;;2.17;1.48;;;;;;;10.93;100.00;99181.94;5138869;28;20055;-52
2023/07/11 02:25:16;;;;;;;2.17;1.45;;;;;;;10.97;100.00;99169.13;5138832;28;20191;-56
2023/07/11 02:27:42;;;;;;;1.70;1.60;;;;;;;11.02;100.00;99150.38;5138762;28;20059;-58
2023/07/11 02:30:09;;;;;;;2.58;1.52;;;;;;;11.22;100.00;99120.88;5138785;28;20200;-55
2023/07/11 02:32:35;;;;;;;1.67;1.58;;;;;;;11.78;100.00;99012.16;5138485;28;20075;-57
2023/07/11 02:35:01;;;;;;;2.63;1.50;;;;;;;12.20;100.00;98800.22;5138814;28;20138;-59
2023/07/11 02:37:27;;;;;;;2.47;1.52;;;;;;;12.64;100.00;98581.19;5138436;27;20075;-55
2023/07/11 02:39:53;;;;;;;4.40;1.60;;;;;;;13.02;100.00;98373.22;5138754;27;20051;-52
2023/07/11 02:42:18;;;;;;;1.48;1.33;;;;;;;13.28;100.00;98244.53;5138331;28;20133;-53
2023/07/11 02:44:44;;;;;;;5.28;1.52;;;;;;;13.71;100.00;98156.03;5138717;28;20138;-50
2023/07/11 02:47:12;;;;;;;1.73;1.60;;;;;;;14.06;100.00;98122.56;5138547;28;20130;-52
2023/07/11 02:49:38;;;;;;;1.60;1.50;;;;;;;14.31;100.00;98124.19;5138210;27;20142;-54
2023/07/11 02:52:06;;;;;;;1.73;1.58;;;;;;;14.56;100.00;98148.69;5138373;28;20065;-56
2023/07/11 02:54:32;;;;;;;3.38;1.90;;;;;;;14.82;100.00;98178.25;5138385;28;20047;-54
2023/07/11 02:56:57;;;;;;;2.47;1.70;;;;;;;15.13;100.00;98202.22;5138214;27;20053;-52
2023/07/11 02:59:23;;;;;;;1.63;1.42;;;;;;;15.43;100.00;98253.84;5138214;28;20138;-54
2023/07/11 03:01:49;;;;;;;1.60;1.50;;;;;;;15.71;100.00;98302.34;5138349;28;20055;-52
2023/07/11 03:04:16;;;;;;;2.03;1.25;;;;;;;15.90;100.00;98322.94;5137890;28;20340;-55
2023/07/11 03:06:42;;;;;;;2.75;1.40;;;;;;;16.17;100.00;98389.22;5138334;28;20051;-53
2023/07/11 03:09:08;;;;;;;2.08;1.45;;;;;;;16.36;100.00;98426.41;5137968;28;20089;-55
2023/07/11 03:11:34;;;;;;;2.58;1.30;;;;;;;16.42;100.00;98478.06;5137613;27;20115;-58
2023/07/11 03:13:59;;;;;;;1.35;1.25;;;;;;;16.56;100.00;98481.81;5137796;28;20047;-57
2023/07/11 03:16:25;;;;;;;4.13;1.55;;;;;;;16.86;100.00;98523.22;5138027;28;20316;-59
2023/07/11 03:18:51;;;;;;;5.10;1.52;;;;;;;17.16;100.00;98557.50;5137800;28;20105;-57
2023/07/11 03:21:18;;;;;;;1.67;1.52;;;;;;;17.02;100.00;98560.53;5137731;28;20043;-55
2023/07/11 03:23:44;;;;;;;3.70;1.15;;;;;;;16.53;100.00;98557.34;5137790;28;20400;-58
2023/07/11 03:26:10;;;;;;;1.40;1.23;;;;;;;16.44;100.00;98522.72;5137675;28;20137;-58
2023/07/11 03:28:35;;;;;;;1.50;1.40;;;;;;;16.13;100.00;98505.44;5138021;28;20089;-55
2023/07/11 03:31:01;;;;;;;1.30;1.20;;;;;;;16.12;100.00;98489.25;5137629;28;20547;-53
2023/07/11 03:33:27;;;;;;;2.67;1.35;;;;;;;16.61;100.00;98481.34;5137966;28;20053;-54
2023/07/11 03:35:53;;;;;;;1.70;1.20;;;;;;;16.88;100.00;98547.72;5137527;28;20429;-53
2023/07/11 03:38:20;;;;;;;1.70;1.30;;;;;;;17.41;100.00;98570.88;5137909;28;20061;-57
2023/07/11 03:40:46;;;;;;;7.03;1.40;;;;;;;17.32;100.00;98626.84;5137505;28;20134;-59
2023/07/11 03:43:12;;;;;;;1.30;1.20;;;;;;;17.50;100.00;98639.59;5137954;27;20051;-58
2023/07/11 03:45:41;;;;;;;1.85;1.40;;;;;;;17.91;100.00;98660.63;5137384;28;20059;-55
2023/07/11 03:48:07;;;;;;;1.55;1.30;;;;;;;17.47;100.00;98649.53;5137663;28;20051;-53
2023/07/11 03:50:33;;;;;;;3.08;1.40;;;;;;;16.91;100.00;98618.84;5137247;28;20142;-53
2023/07/11 03:52:59;;;;;;;1.70;1.30;;;;;;;16.11;100.00;98535.47;5137528;28;20089;-53
2023/07/11 03:55:25;;;;;;;2.38;1.10;;;;;;;17.04;100.00;98519.34;5137572;27;20070;-55
2023/07/11 03:57:51;;;;;;;1.25;1.25;;;;;;;17.70;100.00;98621.00;5137350;28;20147;-54
2023/07/11 04:00:17;;;;;;;3.40;1.45;;;;;;;17.91;100.00;98646.75;5137331;28;20055;-56
2023/07/11 04:02:43;;;;;;;2.60;1.00;;;;;;;18.40;100.00;98683.78;5137296;28;20130;-58
2023/07/11 04:05:09;;;;;;;1.45;1.35;;;;;;;19.12;100.00;98741.28;5137542;28;20476;-55
2023/07/11 04:07:35;;;;;;;2.55;1.35;;;;;;;19.94;100.00;98778.22;5137082;28;20078;-55
2023/07/11 04:10:01;;;;;;;1.25;1.17;;;;;;;20.45;100.00;98795.13;5137407;28;20150;-53
2023/07/11 04:12:28;;;;;;;1.67;1.40;;;;;;;20.50;100.00;98820.88;5136873;28;20138;-54
2023/07/11 04:14:54;;;;;;;2.38;1.40;;;;;;;20.50;100.00;98827.22;5137427;27;20126;-52
2023/07/11 04:17:20;;;;;;;1.10;1.10;;;;;;;21.01;100.00;98830.16;5137227;27;20424;-53
2023/07/11 04:19:45;;;;;;;1.45;1.25;;;;;;;20.71;100.00;98828.63;5137194;28;20424;-56
2023/07/11 04:22:11;;;;;;;1.73;1.15;;;;;;;19.33;100.00;98806.72;5137193;27;20211;-58
2023/07/11 04:24:37;;;;;;;2.95;1.20;;;;;;;18.79;100.00;98785.69;5140425;28;20503;-59
2023/07/11 04:27:04;;;;;;;3.53;1.20;;;;;;;20.31;100.00;98815.00;5140859;27;20138;-60
2023/07/11 04:29:30;;;;;;;1.20;1.10;;;;;;;20.86;100.00;98834.59;5140646;28;20051;-53
2023/07/11 04:31:56;;;;;;;3.33;1.40;;;;;;;19.78;100.00;98808.84;5140601;28;20051;-52
2023/07/11 04:34:22;;;;;;;1.17;1.17;;;;;;;19.43;100.00;98805.69;5140493;28;20112;-54
2023/07/11 04:36:48;;;;;;;4.22;1.55;;;;;;;19.64;100.00;98803.63;5140734;28;20330;-57
2023/07/11 04:39:14;;;;;;;4.90;1.45;;;;;;;19.73;100.00;98809.38;5140330;28;20118;-58
2023/07/11 04:41:40;;;;;;;1.50;1.25;;;;;;;20.43;98.29;98817.06;5140721;28;20465;-59
2023/07/11 04:44:06;;;;;;;1.42;1.33;;;;;;;21.14;96.29;98832.97;5140155;27;20139;-51
2023/07/11 04:46:32;;;;;;;1.27;1.17;;;;;;;21.89;88.72;98833.38;5140121;28;20051;-57
2023/07/11 04:48:58;;;;;;;1.55;1.33;;;;;;;22.40;84.21;98836.06;5140476;27;20138;-54
2023/07/11 04:51:24;;;;;;;1.23;1.13;;;;;;;20.96;88.50;98839.06;5140009;28;20451;-57
2023/07/11 04:53:51;;;;;;;3.80;1.35;;;;;;;21.42;88.95;98833.31;5140335;27;20086;-56
2023/07/11 04:56:17;;;;;;;2.55;1.35;;;;;;;21.03;86.41;98838.88;5140077;28;20066;-56
2023/07/11 04:58:43;;;;;;;1.55;1.45;;;;;;;22.27;86.87;98843.72;5140212;28;20138;-57
2023/07/11 05:01:13;;;;;;;1.88;1.25;;;;;;;22.84;81.06;98844.44;5139989;27;20065;-56
2023/07/11 05:03:40;;;;;;;1.27;1.23;;;;;;;22.29;77.44;98853.19;5140213;27;20145;-60
2023/07/11 05:06:07;;;;;;;9.05;1.42;;;;;;;22.27;80.86;98843.72;5139573;27;20072;-57
2023/07/11 05:08:33;;;;;;;1.50;1.40;;;;;;;22.53;80.58;98845.16;5140109;28;20147;-58
2023/07/11 05:11:01;;;;;;;3.90;1.48;;;;;;;22.88;76.92;98841.50;5139450;28;20139;-56
2023/07/11 05:13:28;;;;;;;1.65;1.50;;;;;;;23.25;76.24;98848.88;5139509;28;20054;-54
2023/07/11 05:15:58;;;;;;;1.40;1.30;;;;;;;23.65;70.97;98850.13;5139605;28;20061;-58
2023/07/11 05:18:24;;;;;;;3.30;1.45;;;;;;;22.43;74.94;98849.13;5139705;27;20051;-55
2023/07/11 05:20:53;;;;;;;1.05;1.00;;;;;;;23.69;72.21;98845.19;5139789;28;20112;-54
2023/07/11 05:23:19;;;;;;;1.98;1.63;;;;;;;23.80;70.33;98853.19;5139578;28;20051;-58
2023/07/11 05:25:45;;;;;;;2.05;1.27;;;;;;;23.64;71.55;98851.38;5139654;28;20043;-58
2023/07/11 05:28:13;;;;;;;2.60;1.40;;;;;;;23.74;70.58;98853.00;5139451;27;20134;-54
2023/07/11 05:30:39;;;;;;;2.53;1.20;;;;;;;23.58;69.03;98859.59;5139605;27;20051;-52
2023/07/11 05:33:04;;;;;;;2.92;2.05;;;;;;;23.49;70.22;98860.34;5139247;28;20139;-54
2023/07/11 05:38:16;;;;;;;2.35;1.70;;;;;;;23.05;68.16;98854.06;5116117;28;20425;-55
2023/07/11 05:40:42;;;;;;;5.45;1.42;;;;;;;23.52;66.43;98861.44;5139076;28;20061;-51
2023/07/11 05:43:09;;;;;;;4.13;1.50;;;;;;;23.70;67.04;98861.53;5139258;27;20047;-56
2023/07/11 05:45:35;;;;;;;3.00;1.08;;;;;;;24.34;65.54;98869.28;5139053;28;20417;-50
2023/07/11 05:48:01;;;;;;;2.35;1.30;;;;;;;24.02;66.05;98865.03;5139096;28;20050;-51
2023/07/11 05:50:27;;;;;;;2.40;1.27;;;;;;;24.23;65.88;98871.78;5138946;28;20122;-54
2023/07/11 05:52:53;;;;;;;1.42;1.30;;;;;;;23.70;66.70;98853.16;5139252;28;20043;-51
2023/07/11 05:55:20;;;;;;;3.63;1.30;;;;;;;23.60;68.85;98857.13;5138738;28;20144;-53
2023/07/11 05:57:45;;;;;;;1.52;1.40;;;;;;;24.30;66.21;98859.47;5138685;27;20138;-53
2023/07/11 06:00:12;;;;;;;4.40;1.52;;;;;;;24.40;66.13;98859.03;5138877;28;20097;-50
2023/07/11 06:02:38;;;;;;;4.00;1.60;;;;;;;24.11;64.39;98844.69;5139292;28;20134;-56
2023/07/11 06:05:05;;;;;;;1.95;1.20;;;;;;;24.19;64.07;98865.53;5138709;28;20097;-56
2023/07/11 06:07:33;;;;;;;1.52;0.98;;;;;;;24.12;64.29;98863.81;5138850;28;20058;-57
2023/07/11 06:09:59;;;;;;;3.10;1.27;;;;;;;23.75;68.96;98848.19;5138598;28;20329;-52
2023/07/11 06:12:25;;;;;;;2.55;1.23;;;;;;;23.50;67.25;98844.34;5138518;27;20070;-52
2023/07/11 06:14:51;;;;;;;1.13;1.02;;;;;;;22.95;66.90;98850.44;5136670;28;20162;-51
2023/07/11 06:17:18;;;;;;;2.03;1.10;;;;;;;23.92;67.43;98849.47;5138626;28;20051;-54
2023/07/11 06:19:44;;;;;;;1.95;1.17;;;;;;;22.73;68.67;98842.06;5138792;28;20138;-51
2023/07/11 06:22:10;;;;;;;1.13;1.02;;;;;;;21.74;74.81;98835.88;5138461;27;20055;-53
2023/07/11 06:24:37;;;;;;;1.45;1.23;;;;;;;21.37;77.24;98840.25;5138890;28;20047;-55
2023/07/11 06:27:03;;;;;;;2.35;1.10;;;;;;;21.69;74.80;98832.84;5138342;27;20047;-52
2023/07/11 06:29:30;;;;;;;0.90;0.90;;;;;;;21.21;74.98;98838.31;5138784;27;20440;-54
2023/07/11 06:31:56;;;;;;;0.95;0.90;;;;;;;20.00;75.17;98833.34;5138061;28;20146;-58
2023/07/11 06:34:22;;;;;;;2.58;1.17;;;;;;;19.40;76.57;98822.44;5138222;28;20055;-57
2023/07/11 06:36:48;;;;;;;1.10;1.00;;;;;;;19.79;80.31;98831.84;5138320;28;20051;-52
2023/07/11 06:39:14;;;;;;;1.45;0.90;;;;;;;19.45;85.18;98821.91;5138176;27;20435;-51
2023/07/11 06:41:40;;;;;;;2.38;1.10;;;;;;;19.83;83.74;98822.22;5138187;28;20090;-51
2023/07/11 06:44:08;;;;;;;3.00;0.90;;;;;;;19.80;86.67;98816.75;5138260;28;20062;-54
2023/07/11 06:46:35;;;;;;;2.53;1.10;;;;;;;19.90;81.71;98827.59;5137828;27;20043;-58
2023/07/11 06:49:01;;;;;;;1.40;1.20;;;;;;;20.23;79.52;98824.78;5138236;28;20055;-52
2023/07/11 06:51:28;;;;;;;1.05;0.80;;;;;;;20.15;75.71;98831.75;5138284;28;20373;-59
2023/07/11 06:53:55;;;;;;;2.80;0.98;;;;;;;19.98;77.76;98820.63;5137914;28;20055;-51
2023/07/11 06:56:22;;;;;;;1.10;1.00;;;;;;;19.69;77.06;98823.38;5138202;28;20055;-55
2023/07/11 06:58:48;;;;;;;1.48;1.10;;;;;;;20.04;79.45;98818.09;5137783;28;20428;-52
2023/07/11 07:01:17;;;;;;;2.55;0.93;;;;;;;19.35;77.71;98820.19;5138415;28;20328;-57
2023/07/11 07:03:43;;;;;;;2.88;1.13;;;;;;;20.12;75.91;98827.81;5137642;27;20051;-58
2023/07/11 07:06:11;;;;;;;2.60;1.08;;;;;;;20.01;73.18;98829.34;5137540;28;20056;-57
2023/07/11 07:08:38;;;;;;;0.60;0.60;;;;;;;19.92;72.71;98829.94;5137733;28;20058;-53
2023/07/11 07:11:04;;;;;;;1.38;0.70;;;;;;;19.33;77.84;98817.06;5137663;28;20059;-57
2023/07/11 07:13:30;;;;;;;2.67;0.90;;;;;;;18.92;77.93;98826.69;5137902;27;20106;-52
2023/07/11 07:15:58;;;;;;;1.23;0.73;;;;;;;19.13;77.23;98829.00;5137611;28;20051;-57
2023/07/11 07:18:26;;;;;;;1.40;0.85;;;;;;;19.58;73.40;98824.81;5137878;27;20141;-59
2023/07/11 07:20:54;;;;;;;1.75;0.88;;;;;;;19.28;74.34;98819.13;5137612;28;20069;-55
2023/07/11 07:23:20;;;;;;;1.00;1.00;;;;;;;19.20;75.31;98814.94;5137925;27;20324;-57
2023/07/11 07:25:50;;;;;;;0.73;0.73;;;;;;;19.01;77.15;98802.66;5137509;28;20065;-51
2023/07/11 07:28:16;;;;;;;10.30;1.08;;;;;;;19.06;78.46;98806.94;5137958;28;20188;-58
2023/07/11 07:30:45;;;;;;;1.45;0.98;;;;;;;19.11;76.81;98800.88;5137337;27;20408;-57
2023/07/11 07:33:10;;;;;;;1.02;0.95;;;;;;;19.14;78.53;98802.00;5137711;28;20142;-58
2023/07/11 07:35:36;;;;;;;2.80;1.00;;;;;;;18.30;79.18;98804.91;5137529;28;20066;-57
2023/07/11 07:38:03;;;;;;;0.82;0.73;;;;;;;19.11;79.46;98803.63;5137519;28;20058;-57
2023/07/11 07:40:29;;;;;;;0.77;0.77;;;;;;;18.55;80.73;98811.94;5137667;28;20055;-53
2023/07/11 07:42:55;;;;;;;1.90;1.23;;;;;;;18.75;83.75;98798.06;5137360;28;20142;-54
2023/07/11 07:45:21;;;;;;;1.75;0.90;;;;;;;19.21;82.23;98804.63;5137504;28;20075;-56
2023/07/11 07:47:47;;;;;;;4.38;0.90;;;;;;;18.10;82.18;98817.97;5137138;28;20351;-58
2023/07/11 07:50:13;;;;;;;3.60;0.88;;;;;;;18.41;87.57;98803.91;5137487;28;20061;-57
2023/07/11 07:52:39;;;;;;;3.35;0.73;;;;;;;18.62;90.48;98805.47;5137185;28;20499;-54
2023/07/11 07:55:07;;;;;;;1.08;0.90;;;;;;;18.30;86.86;98807.66;5137610;27;20147;-52
2023/07/11 07:57:32;;;;;;;0.82;0.70;;;;;;;18.39;89.13;98801.53;5136099;27;20066;-51
2023/07/11 07:59:59;;;;;;;1.42;0.93;;;;;;;18.88;90.02;98798.22;5137074;28;20051;-55
2023/07/11 08:02:25;;;;;;;1.05;1.00;;;;;;;19.11;87.02;98797.31;5137290;28;20388;-55
2023/07/11 08:04:51;;;;;;;4.10;1.00;;;;;;;19.70;84.13;98808.25;5137213;28;20055;-52
2023/07/11 08:07:17;;;;;;;1.35;0.88;;;;;;;19.61;81.22;98810.81;5137078;28;20047;-58
2023/07/11 08:09:44;;;;;;;8.50;1.55;;;;;;;19.40;81.79;98812.13;5136892;28;20051;-57
2023/07/11 08:12:11;;;;;;;1.30;1.05;;;;;;;19.58;85.38;98805.34;5137246;28;20069;-58
2023/07/11 08:14:38;;;;;;;0.80;0.80;;;;;;;18.94;82.20;98810.38;5136998;28;20055;-55
2023/07/11 08:17:05;;;;;;;1.00;0.90;;;;;;;18.64;88.60;98805.81;5136946;27;20089;-54
2023/07/11 08:19:31;;;;;;;1.00;0.90;;;;;;;18.72;86.05;98810.81;5136793;27;20057;-56
2023/07/11 08:21:57;;;;;;;2.08;1.00;;;;;;;19.33;83.74;98809.50;5137125;27;20066;-50
2023/07/11 08:24:23;;;;;;;2.92;0.88;;;;;;;19.84;82.71;98806.31;5136672;27;20180;-54
2023/07/11 08:26:50;;;;;;;1.48;1.08;;;;;;;19.38;82.25;98808.19;5137177;28;20047;-58
2023/07/11 08:29:17;;;;;;;3.80;0.80;;;;;;;19.58;81.61;98810.91;5136898;28;20119;-56
2023/07/11 08:31:43;;;;;;;11.98;1.23;;;;;;;19.56;87.99;98805.78;5136898;28;20072;-53
2023/07/11 08:34:09;;;;;;;2.00;1.05;;;;;;;19.23;93.37;98794.63;5137014;27;20062;-53
2023/07/11 08:36:38;;;;;;;0.95;0.93;;;;;;;19.06;90.84;98793.06;5136536;28;20158;-56
2023/07/11 08:39:04;;;;;;;0.90;0.90;;;;;;;19.23;89.74;98796.63;5136758;28;20069;-51
2023/07/11 08:41:39;;;;;;;3.67;1.30;;;;;;;19.13;89.18;98798.44;5136539;28;20133;-54
2023/07/11 08:44:11;;;;;;;3.60;0.90;;;;;;;19.35;92.10;98797.94;5136871;27;20047;-56
2023/07/11 08:46:42;;;;;;;6.95;1.20;;;;;;;18.89;96.13;98791.44;5136390;28;20428;-51
2023/07/11 08:49:13;;;;;;;2.05;1.25;;;;;;;19.14;89.87;98802.00;5136838;27;20043;-55
2023/07/11 08:51:43;;;;;;;5.32;1.58;;;;;;;19.12;94.32;98793.31;5136242;28;20139;-54
2023/07/11 08:54:15;;;;;;;1.00;0.90;;;;;;;18.72;91.25;98791.38;5136389;28;20086;-57
2023/07/11 08:56:44;;;;;;;1.35;1.10;;;;;;;19.33;88.16;98792.06;5136795;28;20381;-57
2023/07/11 08:59:14;;;;;;;2.95;1.27;;;;;;;19.48;87.14;98794.03;5136393;28;20047;-55
2023/07/11 09:01:48;;;;;;;4.30;1.15;;;;;;;19.22;86.76;98797.84;5136728;27;20147;-55
2023/07/11 09:04:18;;;;;;;3.13;1.50;;;;;;;19.70;89.33;98790.78;5136572;28;20134;-57
2023/07/11 09:06:52;;;;;;;1.35;1.10;;;;;;;19.59;81.47;98813.22;5137085;27;20119;-53
2023/07/11 09:09:18;;;;;;;;;;;;;;;19.10;88.02;98796.53;5138213;27;20098;-52
2023/07/11 09:11:54;;;;;;;0.80;0.80;;;;;;;18.91;90.48;98789.00;5140064;28;20303;-57
2023/07/11 09:14:31;;;;;;;7.00;1.10;;;;;;;18.91;89.34;98789.00;5139899;27;20047;-53
2023/07/11 09:17:05;;;;;;;1.50;1.25;;;;;;;18.90;93.46;98781.91;5139776;27;20134;-58
2023/07/11 09:19:48;;;;;;;1.55;1.10;;;;;;;18.88;89.54;98789.88;5139688;27;20142;-58
2023/07/11 09:22:26;;;;;;;3.95;1.17;;;;;;;19.32;87.72;98788.47;5139675;28;20196;-59
2023/07/11 09:24:58;;;;;;;2.00;1.20;;;;;;;19.85;85.85;98791.97;5139774;28;20150;-52
2023/07/11 09:27:29;;;;;;;1.75;1.23;;;;;;;19.70;82.36;98801.91;5139503;28;20047;-53
2023/07/11 09:29:56;;;;;;;3.70;1.15;;;;;;;20.13;76.45;98809.16;5139745;28;20050;-51
2023/07/11 09:32:30;;;;;;;3.50;1.02;;;;;;;19.43;81.70;98799.34;5139253;27;20126;-53
2023/07/11 09:34:56;;;;;;;;;;;;;;;18.82;83.83;98792.38;5140084;28;20054;-52
2023/07/11 09:37:31;;;;;;;1.55;1.02;;;;;;;20.03;84.37;98785.94;5139565;28;20281;-53
2023/07/11 09:40:03;;;;;;;0.93;0.90;;;;;;;20.14;80.36;98799.56;5139230;28;20386;-56
2023/07/11 09:42:42;;;;;;;1.48;1.00;;;;;;;19.98;76.25;98803.16;5139312;27;20050;-55
2023/07/11 09:45:11;;;;;;;0.90;0.90;;;;;;;20.58;72.75;98811.88;5139025;28;20332;-58
2023/07/11 09:47:39;;;;;;;5.55;1.25;;;;;;;20.64;72.16;98810.13;5139530;28;20097;-55
2023/07/11 09:50:22;;;;;;;1.20;1.10;;;;;;;20.41;73.11;98805.56;5139155;28;20053;-58
2023/07/11 09:52:48;;;;;;;3.93;0.97;;;;;;;21.10;73.65;98807.22;5139188;28;20055;-52
2023/07/11 09:55:24;;;;;;;1.58;0.77;;;;;;;21.08;69.96;98812.44;5139208;28;20380;-56
2023/07/11 09:57:50;;;;;;;2.10;1.27;;;;;;;20.64;69.22;98824.06;5139114;27;20054;-57
2023/07/11 10:00:17;;;;;;;3.70;1.00;;;;;;;20.61;71.50;98793.53;5139127;28;20079;-55
2023/07/11 10:02:46;;;;;;;2.15;1.20;;;;;;;20.45;72.75;98811.81;5138819;28;20429;-55
2023/07/11 10:05:14;;;;;;;4.15;1.20;;;;;;;21.23;72.75;98808.00;5139295;28;20093;-58
2023/07/11 10:07:40;;;;;;;2.05;1.00;;;;;;;21.28;69.36;98812.22;5138767;28;20055;-54
2023/07/11 10:10:13;;;;;;;1.77;1.10;;;;;;;20.29;71.77;98799.94;5139160;27;20101;-55
2023/07/11 10:12:42;;;;;;;3.15;1.27;;;;;;;19.99;75.27;98790.81;5138583;28;20337;-54
2023/07/11 10:15:15;;;;;;;4.22;0.90;;;;;;;20.47;77.74;98789.13;5138914;28;20043;-58
2023/07/11 10:17:43;;;;;;;1.10;1.00;;;;;;;21.01;69.20;98807.09;5138931;27;20141;-52
2023/07/11 10:20:15;;;;;;;0.98;0.95;;;;;;;20.26;72.86;98795.25;5137862;27;20137;-54
2023/07/11 10:22:44;;;;;;;2.30;0.93;;;;;;;21.15;73.87;98801.06;5138698;27;20416;-52
2023/07/11 10:25:17;;;;;;;1.23;0.80;;;;;;;21.11;70.40;98800.41;5138450;28;20053;-56
2023/07/11 10:27:49;;;;;;;1.17;1.10;;;;;;;20.84;71.84;98798.81;5138616;28;20062;-56
2023/07/11 10:30:19;;;;;;;1.77;1.00;;;;;;;20.72;71.83;98793.22;5138502;28;20051;-57
2023/07/11 10:32:50;;;;;;;1.40;1.08;;;;;;;20.67;73.52;98788.97;5138618;27;20061;-59
2023/07/11 10:35:20;;;;;;;4.05;1.00;;;;;;;20.54;74.06;98786.16;5138378;27;20150;-58
2023/07/11 10:37:53;;;;;;;1.00;1.00;;;;;;;19.95;76.34;98788.13;5138248;28;20051;-56
2023/07/11 10:40:23;;;;;;;1.73;0.90;;;;;;;19.95;77.38;98790.91;5138312;27;20082;-58
2023/07/11 10:42:56;;;;;;;1.95;1.17;;;;;;;21.03;77.75;98802.63;5138236;28;20420;-54
2023/07/11 10:45:27;;;;;;;2.63;1.10;;;;;;;20.51;73.68;98795.38;5138510;28;20138;-50
2023/07/11 10:47:59;;;;;;;2.05;1.02;;;;;;;20.51;73.94;98798.19;5138196;27;20090;-53
2023/07/11 10:50:34;;;;;;;3.13;1.08;;;;;;;20.39;75.25;98790.53;5138345;28;20366;-55
2023/07/11 10:53:04;;;;;;;7.38;0.90;;;;;;;20.45;73.94;98797.91;5138049;28;20062;-56
2023/07/11 10:55:36;;;;;;;1.02;0.90;;;;;;;20.02;75.51;98800.28;5138423;27;20054;-55
2023/07/11 10:58:03;;;;;;;1.00;0.90;;;;;;;20.85;74.88;98789.22;5138242;28;20055;-57
2023/07/11 11:00:41;;;;;;;1.52;1.00;;;;;;;20.68;70.90;98794.09;5138087;27;20135;-51
2023/07/11 11:03:17;;;;;;;1.00;0.98;;;;;;;20.75;72.65;98790.31;5138204;27;20178;-55
2023/07/11 11:05:54;;;;;;;0.80;0.80;;;;;;;20.40;74.70;98786.53;5137850;28;20138;-52
2023/07/11 11:08:26;;;;;;;4.22;0.95;;;;;;;21.46;71.17;98789.38;5138284;28;20051;-57
2023/07/11 11:11:01;;;;;;;0.98;0.90;;;;;;;20.30;69.69;98785.63;5137845;28;20082;-51
2023/07/11 11:13:35;;;;;;;1.58;1.20;;;;;;;21.10;68.33;98782.13;5138101;27;20043;-56
2023/07/11 11:16:10;;;;;;;1.23;1.02;;;;;;;21.05;66.78;98777.88;5137616;28;20147;-51
2023/07/11 11:18:51;;;;;;;1.13;1.02;;;;;;;20.62;67.14;98786.72;5137627;27;20061;-57
2023/07/11 11:21:25;;;;;;;6.90;1.00;;;;;;;20.64;68.12;98778.72;5137788;28;20119;-51
2023/07/11 11:24:04;;;;;;;1.38;1.13;;;;;;;20.89;68.29;98783.53;5137546;28;20053;-49
2023/07/11 11:26:37;;;;;;;2.88;1.20;;;;;;;20.73;68.96;98781.63;5137857;28;20047;-50
2023/07/11 11:29:17;;;;;;;1.25;1.00;;;;;;;21.26;67.71;98784.00;5137405;27;20146;-53
2023/07/11 11:31:51;;;;;;;1.00;1.00;;;;;;;21.53;67.02;98787.16;5137267;27;20404;-50
2023/07/11 11:34:38;;;;;;;4.32;0.90;;;;;;;21.05;69.48;98786.22;5137776;28;20051;-57
2023/07/11 11:37:15;;;;;;;4.22;0.98;;;;;;;21.15;69.96;98782.31;5137401;28;20047;-54